createdAt,value
2022-10-06T00:01:28.524Z,97.30
2022-10-06T00:03:33.233Z,97.30
2022-10-06T00:05:38.261Z,97.30
2022-10-06T00:07:42.725Z,97.60
2022-10-06T00:09:47.144Z,97.50
2022-10-06T00:11:51.460Z,97.70
2022-10-06T00:13:56.087Z,97.60
2022-10-06T00:16:02.364Z,98.10
2022-10-06T00:18:07.065Z,97.90
2022-10-06T00:20:14.870Z,97.90
2022-10-06T00:22:19.179Z,98.10
2022-10-06T00:24:23.338Z,97.50
2022-10-06T00:26:27.611Z,97.40
2022-10-06T00:28:32.682Z,98.00
2022-10-06T00:30:37.768Z,98.30
2022-10-06T00:32:43.519Z,98.50
2022-10-06T00:34:47.668Z,98.60
2022-10-06T00:36:52.041Z,98.90
2022-10-06T00:38:56.668Z,99.30
2022-10-06T00:41:00.902Z,99.10
2022-10-06T00:43:07.378Z,99.60
2022-10-06T00:45:12.989Z,99.20
2022-10-06T00:47:17.485Z,99.60
2022-10-06T00:49:29.709Z,99.60
2022-10-06T00:51:35.145Z,99.60
2022-10-06T00:53:39.616Z,99.40
2022-10-06T00:55:43.949Z,99.50
2022-10-06T00:57:48.823Z,99.60
2022-10-06T00:59:53.574Z,99.30
2022-10-06T01:02:03.406Z,99.20
2022-10-06T01:04:11.631Z,99.10
2022-10-06T01:06:18.186Z,99.10
2022-10-06T01:08:24.154Z,99.00
2022-10-06T01:10:28.901Z,98.70
2022-10-06T01:12:34.483Z,98.90
2022-10-06T01:14:40.685Z,98.80
2022-10-06T01:16:49.100Z,99.10
2022-10-06T01:18:55.989Z,99.10
2022-10-06T01:21:07.329Z,99.30
2022-10-06T01:23:13.498Z,99.10
2022-10-06T01:25:19.693Z,99.50
2022-10-06T01:27:26.349Z,99.00
2022-10-06T01:29:33.015Z,98.90
2022-10-06T01:31:37.703Z,99.30
2022-10-06T01:33:43.759Z,99.40
2022-10-06T01:35:52.100Z,99.60
2022-10-06T01:37:58.996Z,99.80
2022-10-06T01:40:06.719Z,99.80
2022-10-06T01:42:13.055Z,99.80
2022-10-06T01:44:17.879Z,99.60
2022-10-06T01:46:22.569Z,99.70
2022-10-06T01:48:28.249Z,99.50
2022-10-06T01:50:35.140Z,99.50
2022-10-06T01:52:39.507Z,99.70
2022-10-06T01:54:45.866Z,99.70
2022-10-06T01:56:51.670Z,99.90
2022-10-06T01:58:57.059Z,99.80
2022-10-06T02:01:06.153Z,99.80
2022-10-06T02:03:13.066Z,99.80
2022-10-06T02:05:19.986Z,99.60
2022-10-06T02:07:27.931Z,99.80
2022-10-06T02:09:32.410Z,99.90
2022-10-06T02:11:37.300Z,99.90
2022-10-06T02:13:43.532Z,99.90
2022-10-06T02:15:47.895Z,99.90
2022-10-06T02:17:52.219Z,99.70
2022-10-06T02:19:56.678Z,99.90
2022-10-06T02:22:00.979Z,99.90
2022-10-06T02:24:05.324Z,99.90
2022-10-06T02:26:09.712Z,99.70
2022-10-06T02:28:14.155Z,99.70
2022-10-06T02:30:20.354Z,99.80
2022-10-06T02:32:25.147Z,99.60
2022-10-06T02:34:29.409Z,99.70
2022-10-06T02:36:33.693Z,99.20
2022-10-06T02:38:37.923Z,99.20
2022-10-06T02:40:45.931Z,99.20
2022-10-06T02:42:50.259Z,99.20
2022-10-06T02:44:59.488Z,99.50
2022-10-06T02:47:05.470Z,99.80
2022-10-06T02:49:09.697Z,99.70
2022-10-06T02:51:18.353Z,99.90
2022-10-06T02:53:25.287Z,99.90
2022-10-06T02:55:31.323Z,99.90
2022-10-06T02:57:37.335Z,99.90
2022-10-06T02:59:43.059Z,99.80
2022-10-06T03:01:47.584Z,99.90
2022-10-06T03:03:55.719Z,99.90
2022-10-06T03:06:03.729Z,99.40
2022-10-06T03:08:12.444Z,99.50
2022-10-06T03:10:16.839Z,99.70
2022-10-06T03:12:21.309Z,99.60
2022-10-06T03:14:25.643Z,99.40
2022-10-06T03:16:32.223Z,99.70
2022-10-06T03:18:37.281Z,99.80
2022-10-06T03:20:42.911Z,99.30
2022-10-06T03:22:47.246Z,99.70
2022-10-06T03:24:53.353Z,99.60
2022-10-06T03:26:58.853Z,99.80
2022-10-06T03:29:05.949Z,99.80
2022-10-06T03:31:14.031Z,99.80
2022-10-06T03:33:19.376Z,99.50
2022-10-06T03:35:25.361Z,99.70
2022-10-06T03:37:31.827Z,99.70
2022-10-06T03:39:37.476Z,99.70
2022-10-06T03:41:42.718Z,99.50
2022-10-06T03:43:49.760Z,99.50
2022-10-06T03:45:57.996Z,99.80
2022-10-06T03:48:02.716Z,99.90
2022-10-06T03:50:08.265Z,99.90
2022-10-06T03:52:12.851Z,99.90
2022-10-06T03:54:18.738Z,99.90
2022-10-06T03:56:26.432Z,99.90
2022-10-06T03:58:31.790Z,99.90
2022-10-06T04:00:36.622Z,99.90
2022-10-06T04:02:40.934Z,99.80
2022-10-06T04:04:46.105Z,99.70
2022-10-06T04:06:50.322Z,99.60
2022-10-06T04:08:57.757Z,99.60
2022-10-06T04:11:08.983Z,99.60
2022-10-06T04:13:13.258Z,99.50
2022-10-06T04:15:17.587Z,99.80
2022-10-06T04:17:22.028Z,99.50
2022-10-06T04:19:27.423Z,99.70
2022-10-06T04:21:36.747Z,99.60
2022-10-06T04:23:44.304Z,99.80
2022-10-06T04:25:51.440Z,99.90
2022-10-06T04:28:01.593Z,99.90
2022-10-06T04:30:07.091Z,99.90
2022-10-06T04:32:12.053Z,99.90
2022-10-06T04:34:16.601Z,99.90
2022-10-06T04:36:25.430Z,99.90
2022-10-06T04:38:33.532Z,99.90
2022-10-06T04:40:38.035Z,99.90
2022-10-06T04:42:43.422Z,99.90
2022-10-06T04:44:53.088Z,99.70
2022-10-06T04:46:57.738Z,99.60
2022-10-06T04:49:03.568Z,99.60
2022-10-06T04:51:12.992Z,99.00
2022-10-06T04:53:17.669Z,98.80
2022-10-06T04:55:22.488Z,98.10
2022-10-06T04:57:26.950Z,97.30
2022-10-06T04:59:45.247Z,96.70
2022-10-06T05:01:52.963Z,96.10
2022-10-06T05:03:58.842Z,95.90
2022-10-06T05:06:06.579Z,95.90
2022-10-06T05:08:11.280Z,95.60
2022-10-06T05:10:15.781Z,95.20
2022-10-06T05:12:20.529Z,95.10
2022-10-06T05:14:24.922Z,94.90
2022-10-06T05:16:31.777Z,94.80
2022-10-06T05:18:38.545Z,94.50
2022-10-06T05:20:44.029Z,94.00
2022-10-06T05:22:48.429Z,93.60
2022-10-06T05:24:54.067Z,93.10
2022-10-06T05:27:02.183Z,93.00
2022-10-06T05:29:07.111Z,92.80
2022-10-06T05:31:14.967Z,92.30
2022-10-06T05:33:19.340Z,92.30
2022-10-06T05:35:25.263Z,92.40
2022-10-06T05:37:30.212Z,92.20
2022-10-06T05:39:35.103Z,91.90
2022-10-06T05:41:39.300Z,91.70
2022-10-06T05:43:47.188Z,90.90
2022-10-06T05:45:56.098Z,91.50
2022-10-06T05:48:00.484Z,90.90
2022-10-06T05:50:05.595Z,91.20
2022-10-06T05:52:12.035Z,91.40
2022-10-06T05:54:16.500Z,92.70
2022-10-06T05:56:22.473Z,92.60
2022-10-06T05:58:29.480Z,93.10
2022-10-06T06:00:34.239Z,93.10
2022-10-06T06:02:38.601Z,92.90
2022-10-06T06:04:43.907Z,92.80
2022-10-06T06:06:49.468Z,93.10
2022-10-06T06:09:01.974Z,92.50
2022-10-06T06:11:10.964Z,93.00
2022-10-06T06:13:21.526Z,92.20
2022-10-06T06:15:53.639Z,92.00
2022-10-06T06:17:58.749Z,92.00
2022-10-06T06:20:03.262Z,91.20
2022-10-06T06:22:08.427Z,91.10
2022-10-06T06:24:18.146Z,90.80
2022-10-06T06:26:24.902Z,90.60
2022-10-06T06:28:31.302Z,90.90
2022-10-06T06:30:36.514Z,90.70
2022-10-06T06:32:41.064Z,90.00
2022-10-06T06:34:45.799Z,88.60
2022-10-06T06:36:55.226Z,88.30
2022-10-06T06:39:00.711Z,87.10
2022-10-06T06:41:13.836Z,86.80
2022-10-06T06:43:18.772Z,85.70
2022-10-06T06:45:49.015Z,86.10
2022-10-06T06:48:02.645Z,87.30
2022-10-06T06:50:10.830Z,87.00
2022-10-06T06:52:17.675Z,85.20
2022-10-06T06:54:22.534Z,85.60
2022-10-06T06:56:35.062Z,85.30
2022-10-06T06:58:46.427Z,84.70
2022-10-06T07:00:51.641Z,84.00
2022-10-06T07:03:00.968Z,82.50
2022-10-06T07:05:10.015Z,81.60
2022-10-06T07:07:14.893Z,81.50
2022-10-06T07:09:20.960Z,82.20
2022-10-06T07:11:28.586Z,81.80
2022-10-06T07:13:35.804Z,82.70
2022-10-06T07:15:57.691Z,82.10
2022-10-06T07:18:22.231Z,81.50
2022-10-06T07:20:43.662Z,80.60
2022-10-06T07:23:05.257Z,78.90
2022-10-06T07:25:15.170Z,78.00
2022-10-06T07:27:24.391Z,77.70
2022-10-06T07:29:30.799Z,78.60
2022-10-06T07:31:37.851Z,78.60
2022-10-06T07:33:42.730Z,78.40
2022-10-06T07:35:47.500Z,77.90
2022-10-06T07:37:55.560Z,78.30
2022-10-06T07:40:02.189Z,78.30
2022-10-06T07:42:08.748Z,78.60
2022-10-06T07:44:13.163Z,77.60
2022-10-06T07:46:22.014Z,76.70
2022-10-06T07:48:46.886Z,76.20
2022-10-06T07:50:54.127Z,75.00
2022-10-06T07:53:10.161Z,74.90
2022-10-06T07:55:20.345Z,74.10
2022-10-06T07:57:57.160Z,74.40
2022-10-06T08:00:03.309Z,74.00
2022-10-06T08:02:18.153Z,74.40
2022-10-06T08:04:22.802Z,73.60
2022-10-06T08:06:27.349Z,72.50
2022-10-06T08:08:33.373Z,72.70
2022-10-06T08:10:37.623Z,72.80
2022-10-06T08:12:41.994Z,73.40
2022-10-06T08:14:46.251Z,73.30
2022-10-06T08:16:50.559Z,72.50
2022-10-06T08:18:57.678Z,72.70
2022-10-06T08:21:02.245Z,72.50
2022-10-06T08:23:08.783Z,72.60
2022-10-06T08:25:13.675Z,72.80
2022-10-06T08:27:18.185Z,72.60
2022-10-06T08:29:22.804Z,72.90
2022-10-06T08:31:27.168Z,72.40
2022-10-06T08:33:31.426Z,72.60
2022-10-06T08:35:37.444Z,72.10
2022-10-06T08:37:42.482Z,71.80
2022-10-06T08:39:46.840Z,71.60
2022-10-06T08:41:54.928Z,71.70
2022-10-06T08:44:04.479Z,70.80
2022-10-06T08:46:13.031Z,71.30
2022-10-06T08:48:21.414Z,71.60
2022-10-06T08:50:28.660Z,70.90
2022-10-06T08:52:57.026Z,70.80
2022-10-06T08:55:08.902Z,70.30
2022-10-06T08:57:19.539Z,69.60
2022-10-06T08:59:24.240Z,69.30
2022-10-06T09:01:33.504Z,69.50
2022-10-06T09:03:38.984Z,69.80
2022-10-06T09:05:43.235Z,69.30
2022-10-06T09:08:04.426Z,68.90
2022-10-06T09:10:23.829Z,67.10
2022-10-06T09:12:35.466Z,68.20
2022-10-06T09:14:45.574Z,67.80
2022-10-06T09:16:54.390Z,67.80
2022-10-06T09:19:09.419Z,66.10
2022-10-06T09:21:18.745Z,66.40
2022-10-06T09:23:38.897Z,66.90
2022-10-06T09:25:45.070Z,66.70
2022-10-06T09:27:54.574Z,67.60
2022-10-06T09:29:59.927Z,66.60
2022-10-06T09:32:04.490Z,67.30
2022-10-06T09:34:20.219Z,66.50
2022-10-06T09:36:24.524Z,66.30
2022-10-06T09:38:48.675Z,65.80
2022-10-06T09:40:55.683Z,65.40
2022-10-06T09:43:00.492Z,65.40
2022-10-06T09:45:08.272Z,66.00
2022-10-06T09:47:26.646Z,65.90
2022-10-06T09:49:32.605Z,65.70
2022-10-06T09:51:37.945Z,65.60
2022-10-06T09:53:45.211Z,65.90
2022-10-06T09:55:55.022Z,65.60
2022-10-06T09:57:59.452Z,65.80
2022-10-06T10:00:04.865Z,65.40
2022-10-06T10:02:27.805Z,65.20
2022-10-06T10:04:33.801Z,65.80
2022-10-06T10:06:38.399Z,65.00
2022-10-06T10:08:44.253Z,64.90
2022-10-06T10:10:48.796Z,64.60
2022-10-06T10:12:52.849Z,64.40
2022-10-06T10:15:00.484Z,64.80
2022-10-06T10:17:14.494Z,65.30
2022-10-06T10:19:28.112Z,65.30
2022-10-06T10:21:34.663Z,65.30
2022-10-06T10:23:42.767Z,64.60
2022-10-06T10:25:59.481Z,64.10
2022-10-06T10:28:15.799Z,63.90
2022-10-06T10:30:20.988Z,64.60
2022-10-06T10:32:41.271Z,65.00
2022-10-06T10:35:06.083Z,65.20
2022-10-06T10:37:13.857Z,65.40
2022-10-06T10:39:28.587Z,65.30
2022-10-06T10:41:43.635Z,65.10
2022-10-06T10:43:52.329Z,65.70
2022-10-06T10:46:03.149Z,65.60
2022-10-06T10:48:14.358Z,65.40
2022-10-06T10:50:26.041Z,65.60
2022-10-06T10:52:36.911Z,65.90
2022-10-06T10:54:46.186Z,65.90
2022-10-06T10:56:53.683Z,65.00
2022-10-06T10:59:04.442Z,64.80
2022-10-06T11:01:19.082Z,65.20
2022-10-06T11:03:23.446Z,65.30
2022-10-06T11:05:47.364Z,65.70
2022-10-06T11:07:59.893Z,64.60
2022-10-06T11:10:10.903Z,64.60
2022-10-06T11:12:27.737Z,64.30
2022-10-06T11:14:45.458Z,64.70
2022-10-06T11:16:55.787Z,64.60
2022-10-06T11:19:15.089Z,64.10
2022-10-06T11:21:23.619Z,65.00
2022-10-06T11:23:53.517Z,63.50
2022-10-06T11:26:10.887Z,64.30
2022-10-06T11:28:22.626Z,63.40
2022-10-06T11:30:27.759Z,63.20
2022-10-06T11:32:43.990Z,63.50
2022-10-06T11:34:50.127Z,63.40
2022-10-06T11:37:02.489Z,63.50
